createdAt,value
2018-07-11T00:00:22.991Z,89.6
2018-07-11T00:01:24.377Z,89.7
2018-07-11T00:02:25.776Z,90.2
2018-07-11T00:03:27.164Z,90.0
2018-07-11T00:04:28.552Z,90.1
2018-07-11T00:05:29.947Z,90.4
2018-07-11T00:06:31.336Z,90.5
2018-07-11T00:07:32.729Z,90.6
2018-07-11T00:08:34.118Z,90.9
2018-07-11T00:09:35.510Z,91.1
2018-07-11T00:10:36.899Z,90.9
2018-07-11T00:11:38.292Z,90.8
2018-07-11T00:12:39.679Z,90.9
2018-07-11T00:13:41.069Z,91.0
2018-07-11T00:14:42.465Z,91.1
2018-07-11T00:15:43.856Z,91.0
2018-07-11T00:16:45.269Z,90.9
2018-07-11T00:17:46.651Z,91.2
2018-07-11T00:18:48.042Z,91.0
2018-07-11T00:19:49.442Z,91.2
2018-07-11T00:20:50.827Z,91.3
2018-07-11T00:21:52.217Z,91.1
2018-07-11T00:22:53.606Z,91.5
2018-07-11T00:23:55.010Z,91.8
2018-07-11T00:24:56.391Z,91.7
2018-07-11T00:25:57.780Z,91.5
2018-07-11T00:26:59.169Z,91.6
2018-07-11T00:28:00.568Z,91.6
2018-07-11T00:29:01.957Z,91.5
2018-07-11T00:30:03.349Z,91.6
2018-07-11T00:31:04.742Z,91.6
2018-07-11T00:32:06.155Z,91.0
2018-07-11T00:33:07.565Z,91.4
2018-07-11T00:34:08.953Z,91.7
2018-07-11T00:35:10.343Z,92.4
2018-07-11T00:36:11.819Z,92.1
2018-07-11T00:37:13.269Z,91.8
2018-07-11T00:38:14.578Z,92.4
2018-07-11T00:39:15.969Z,92.3
2018-07-11T00:40:17.359Z,92.2
2018-07-11T00:41:18.747Z,92.3
2018-07-11T00:42:20.140Z,92.4
2018-07-11T00:43:21.531Z,92.5
2018-07-11T00:44:22.917Z,92.4
2018-07-11T00:45:24.307Z,92.4
2018-07-11T00:46:25.697Z,93.1
2018-07-11T00:47:27.089Z,92.9
2018-07-11T00:48:28.478Z,93.0
2018-07-11T00:49:29.868Z,92.7
2018-07-11T00:50:31.260Z,92.9
2018-07-11T00:51:32.653Z,93.2
2018-07-11T00:52:34.047Z,93.4
2018-07-11T00:53:35.437Z,93.1
2018-07-11T00:54:36.856Z,93.3
2018-07-11T00:55:38.248Z,93.4
2018-07-11T00:56:39.641Z,93.5
2018-07-11T00:57:41.030Z,93.6
2018-07-11T00:58:42.426Z,93.6
2018-07-11T00:59:43.822Z,94.2
2018-07-11T01:00:45.207Z,93.8
2018-07-11T01:01:46.598Z,94.0
2018-07-11T01:02:47.993Z,93.6
2018-07-11T01:03:49.379Z,93.8
2018-07-11T01:04:50.769Z,94.1
2018-07-11T01:05:52.161Z,93.9
2018-07-11T01:06:53.552Z,94.0
2018-07-11T01:07:54.940Z,94.1
2018-07-11T01:08:56.328Z,93.7
2018-07-11T01:09:57.721Z,93.6
2018-07-11T01:10:59.103Z,93.5
2018-07-11T01:12:00.492Z,93.7
2018-07-11T01:13:01.884Z,93.2
2018-07-11T01:14:03.277Z,93.5
2018-07-11T01:15:04.666Z,93.5
2018-07-11T01:16:06.060Z,93.2
2018-07-11T01:17:07.463Z,93.2
2018-07-11T01:18:08.854Z,93.2
2018-07-11T01:19:10.246Z,93.5
2018-07-11T01:20:11.638Z,93.3
2018-07-11T01:21:13.032Z,93.3
2018-07-11T01:22:14.428Z,93.4
2018-07-11T01:23:15.811Z,93.3
2018-07-11T01:24:17.201Z,93.4
2018-07-11T01:25:18.587Z,93.6
2018-07-11T01:26:19.978Z,94.0
2018-07-11T01:27:21.370Z,93.5
2018-07-11T01:28:22.757Z,93.5
2018-07-11T01:29:24.149Z,94.0
2018-07-11T01:30:25.541Z,93.3
2018-07-11T01:31:26.937Z,94.0
2018-07-11T01:32:28.327Z,94.1
2018-07-11T01:33:29.724Z,94.1
2018-07-11T01:34:31.117Z,93.6
2018-07-11T01:35:32.512Z,93.4
2018-07-11T01:36:33.904Z,93.5
2018-07-11T01:37:35.297Z,94.0
2018-07-11T01:38:36.684Z,93.7
2018-07-11T01:39:38.074Z,93.7
2018-07-11T01:40:39.466Z,93.9
2018-07-11T01:41:40.854Z,94.0
2018-07-11T01:42:42.248Z,94.1
2018-07-11T01:43:43.630Z,94.1
2018-07-11T01:44:45.025Z,94.1
2018-07-11T01:45:46.417Z,94.6
2018-07-11T01:46:47.806Z,94.9
2018-07-11T01:47:49.193Z,94.9
2018-07-11T01:48:50.586Z,94.8
2018-07-11T01:49:51.978Z,94.6
2018-07-11T01:50:53.366Z,94.5
2018-07-11T01:51:54.754Z,94.7
2018-07-11T01:52:56.141Z,94.6
2018-07-11T01:53:57.536Z,94.8
2018-07-11T01:54:58.928Z,94.7
2018-07-11T01:56:00.321Z,95.7
2018-07-11T01:57:01.712Z,95.6
2018-07-11T01:58:03.100Z,95.7
2018-07-11T01:59:04.492Z,95.9
2018-07-11T02:00:05.880Z,95.5
2018-07-11T02:01:07.271Z,96.7
2018-07-11T02:02:08.755Z,96.7
2018-07-11T02:03:10.140Z,96.9
2018-07-11T02:04:11.543Z,97.1
2018-07-11T02:05:12.933Z,97.8
2018-07-11T02:06:14.323Z,97.6
2018-07-11T02:07:15.711Z,97.6
2018-07-11T02:08:17.101Z,97.1
2018-07-11T02:09:18.494Z,98.2
2018-07-11T02:10:19.890Z,97.6
2018-07-11T02:11:21.283Z,98.6
2018-07-11T02:12:22.670Z,98.6
2018-07-11T02:13:24.060Z,98.2
2018-07-11T02:14:25.453Z,98.4
2018-07-11T02:15:26.844Z,98.6
2018-07-11T02:16:28.234Z,98.3
2018-07-11T02:17:29.622Z,98.2
2018-07-11T02:18:31.016Z,98.4
2018-07-11T02:19:32.399Z,98.2
2018-07-11T02:20:33.787Z,98.2
2018-07-11T02:21:35.176Z,98.3
2018-07-11T02:22:36.568Z,97.4
2018-07-11T02:23:37.959Z,97.2
2018-07-11T02:24:39.351Z,97.4
2018-07-11T02:25:40.741Z,98.1
2018-07-11T02:26:42.128Z,98.2
2018-07-11T02:27:43.515Z,97.9
2018-07-11T02:28:44.907Z,97.9
2018-07-11T02:29:46.299Z,97.9
2018-07-11T02:30:47.686Z,97.7
2018-07-11T02:31:49.075Z,97.9
2018-07-11T02:32:50.467Z,97.7
2018-07-11T02:33:51.863Z,97.6
2018-07-11T02:34:53.249Z,97.6
2018-07-11T02:35:54.641Z,98.4
2018-07-11T02:36:56.027Z,97.2
2018-07-11T02:37:57.416Z,97.7
2018-07-11T02:38:58.806Z,97.7
2018-07-11T02:40:00.201Z,96.9
2018-07-11T02:41:01.588Z,96.7
2018-07-11T02:42:02.976Z,97.2
2018-07-11T02:43:04.370Z,96.8
2018-07-11T02:44:05.756Z,97.7
2018-07-11T02:45:07.149Z,97.1
2018-07-11T02:46:08.538Z,97.4
2018-07-11T02:47:09.948Z,97.9
2018-07-11T02:48:11.340Z,97.8
2018-07-11T02:49:12.755Z,98.2
2018-07-11T02:50:14.141Z,97.7
2018-07-11T02:51:15.528Z,98.4
2018-07-11T02:52:16.916Z,98.2
2018-07-11T02:53:18.312Z,98.0
2018-07-11T02:54:19.695Z,98.0
2018-07-11T02:55:21.089Z,97.8
2018-07-11T02:56:22.477Z,97.8
2018-07-11T02:57:23.864Z,97.9
2018-07-11T02:58:25.258Z,97.9
2018-07-11T02:59:26.648Z,98.3
2018-07-11T03:00:28.039Z,98.1
2018-07-11T03:01:29.439Z,98.6
2018-07-11T03:02:30.819Z,98.3
2018-07-11T03:03:32.208Z,98.3
2018-07-11T03:04:33.601Z,97.9
2018-07-11T03:05:34.991Z,97.8
2018-07-11T03:06:36.379Z,97.5
2018-07-11T03:07:37.769Z,97.3
2018-07-11T03:08:39.160Z,97.7
2018-07-11T03:09:40.560Z,97.9
2018-07-11T03:10:41.943Z,97.6
2018-07-11T03:11:43.339Z,97.6
2018-07-11T03:12:44.723Z,98.1
2018-07-11T03:13:46.114Z,97.7
2018-07-11T03:14:47.502Z,97.9
2018-07-11T03:15:48.895Z,98.4
2018-07-11T03:16:50.282Z,98.2
2018-07-11T03:17:51.670Z,98.2
2018-07-11T03:18:53.061Z,98.7
2018-07-11T03:19:54.451Z,98.4
2018-07-11T03:20:55.844Z,98.4
2018-07-11T03:21:57.237Z,98.4
2018-07-11T03:22:58.631Z,98.3
2018-07-11T03:24:00.022Z,99.0
2018-07-11T03:25:01.419Z,98.5
2018-07-11T03:26:02.799Z,98.3
2018-07-11T03:27:04.188Z,98.9
2018-07-11T03:28:05.576Z,98.9
2018-07-11T03:29:06.969Z,99.6
2018-07-11T03:30:08.362Z,99.1
2018-07-11T03:31:09.801Z,99.5
2018-07-11T03:32:11.197Z,99.7
2018-07-11T03:33:12.589Z,99.3
2018-07-11T03:34:13.980Z,99.3
2018-07-11T03:35:15.373Z,99.1
2018-07-11T03:36:16.764Z,98.8
2018-07-11T03:37:18.154Z,98.9
2018-07-11T03:38:19.547Z,99.0
2018-07-11T03:39:20.937Z,98.6
2018-07-11T03:40:22.331Z,98.7
2018-07-11T03:41:23.719Z,98.9
2018-07-11T03:42:25.113Z,98.3
2018-07-11T03:43:26.505Z,98.9
2018-07-11T03:44:27.896Z,99.0
2018-07-11T03:45:29.291Z,98.1
2018-07-11T03:46:30.680Z,98.5
2018-07-11T03:47:32.072Z,98.9
2018-07-11T03:48:33.463Z,98.5
2018-07-11T03:49:34.857Z,98.9
2018-07-11T03:50:36.252Z,98.7
2018-07-11T03:51:37.646Z,99.0
2018-07-11T03:52:39.037Z,98.9
2018-07-11T03:53:40.485Z,98.7
2018-07-11T03:54:41.822Z,98.5
2018-07-11T03:55:43.272Z,98.1
2018-07-11T03:56:44.664Z,98.2
2018-07-11T03:57:46.060Z,98.2
2018-07-11T03:58:47.492Z,98.1
2018-07-11T03:59:48.883Z,98.1
2018-07-11T04:00:50.273Z,98.4
2018-07-11T04:01:51.668Z,98.2
2018-07-11T04:02:53.055Z,98.8
2018-07-11T04:03:54.450Z,98.3
2018-07-11T04:04:55.941Z,98.2
2018-07-11T04:05:57.236Z,98.1
2018-07-11T04:06:58.649Z,99.0
2018-07-11T04:08:00.040Z,98.9
2018-07-11T04:09:01.435Z,98.8
2018-07-11T04:10:02.826Z,98.7
2018-07-11T04:11:04.218Z,98.8
2018-07-11T04:12:05.665Z,99.0
2018-07-11T04:13:07.434Z,99.1
2018-07-11T04:14:08.785Z,98.8
2018-07-11T04:15:10.175Z,98.7
2018-07-11T04:16:11.601Z,98.7
2018-07-11T04:17:12.994Z,98.7
2018-07-11T04:18:14.390Z,98.7
2018-07-11T04:19:15.784Z,99.0
2018-07-11T04:20:17.177Z,98.7
2018-07-11T04:21:18.569Z,99.7
2018-07-11T04:22:19.961Z,98.9
2018-07-11T04:23:21.357Z,99.4
2018-07-11T04:24:22.747Z,99.4
2018-07-11T04:25:24.144Z,99.6
2018-07-11T04:26:25.538Z,99.9
2018-07-11T04:27:26.938Z,99.4
2018-07-11T04:28:28.331Z,99.9
2018-07-11T04:29:29.731Z,99.6
2018-07-11T04:30:31.121Z,100.0
2018-07-11T04:31:32.515Z,99.9
2018-07-11T04:32:33.910Z,99.9
2018-07-11T04:33:35.305Z,99.6
2018-07-11T04:34:36.719Z,99.5
2018-07-11T04:35:38.090Z,100.0
2018-07-11T04:36:39.805Z,99.6
2018-07-11T04:37:41.196Z,99.9
2018-07-11T04:38:42.597Z,99.7
2018-07-11T04:39:44.781Z,100.0
2018-07-11T04:40:46.169Z,99.6
2018-07-11T04:41:47.562Z,99.7
2018-07-11T04:42:48.954Z,99.7
2018-07-11T04:43:50.346Z,100.0
2018-07-11T04:44:51.738Z,99.7
2018-07-11T04:45:53.128Z,99.7
2018-07-11T04:46:54.525Z,100.0
2018-07-11T04:47:55.917Z,100.0
2018-07-11T04:48:57.319Z,100.0
2018-07-11T04:49:58.721Z,100.0
2018-07-11T04:51:00.117Z,100.0
2018-07-11T04:52:01.507Z,100.0
2018-07-11T04:53:02.906Z,100.0
2018-07-11T04:54:04.301Z,100.0
2018-07-11T04:55:05.696Z,100.0
2018-07-11T04:56:07.095Z,100.0
2018-07-11T04:57:08.485Z,100.0
2018-07-11T04:58:09.879Z,100.0
2018-07-11T04:59:11.285Z,100.0
2018-07-11T05:00:12.679Z,100.0
2018-07-11T05:01:14.075Z,100.0
2018-07-11T05:02:15.466Z,100.0
2018-07-11T05:03:16.865Z,100.0
2018-07-11T05:04:18.258Z,100.0
2018-07-11T05:05:19.652Z,100.0
2018-07-11T05:06:21.049Z,100.0
2018-07-11T05:07:22.443Z,100.0
2018-07-11T05:08:23.852Z,100.0
2018-07-11T05:09:25.273Z,99.7
2018-07-11T05:10:26.642Z,99.9
2018-07-11T05:11:28.036Z,100.0
2018-07-11T05:12:29.428Z,100.0
2018-07-11T05:13:30.950Z,100.0
2018-07-11T05:14:32.350Z,100.0
2018-07-11T05:15:33.748Z,100.0
2018-07-11T05:16:35.147Z,100.0
2018-07-11T05:17:36.789Z,100.0
2018-07-11T05:18:38.185Z,100.0
2018-07-11T05:19:39.578Z,100.0
2018-07-11T05:20:45.542Z,100.0
2018-07-11T05:21:46.950Z,100.0
2018-07-11T05:22:48.346Z,100.0
2018-07-11T05:23:49.738Z,100.0
2018-07-11T05:24:51.137Z,100.0
2018-07-11T05:25:52.524Z,99.5
2018-07-11T05:26:53.915Z,99.4
2018-07-11T05:27:55.310Z,99.5
2018-07-11T05:28:56.703Z,99.5
2018-07-11T05:29:58.099Z,99.6
2018-07-11T05:30:59.492Z,99.8
2018-07-11T05:32:00.889Z,100.0
2018-07-11T05:33:02.279Z,100.0
2018-07-11T05:34:03.715Z,100.0
2018-07-11T05:35:05.148Z,100.0
2018-07-11T05:36:06.544Z,99.9
2018-07-11T05:37:07.950Z,100.0
2018-07-11T05:38:09.347Z,99.5
2018-07-11T05:39:10.782Z,99.8
2018-07-11T05:40:12.138Z,99.5
2018-07-11T05:41:13.579Z,99.6
2018-07-11T05:42:14.927Z,100.0
2018-07-11T05:43:16.424Z,100.0
2018-07-11T05:44:17.819Z,99.7
2018-07-11T05:45:19.220Z,99.8
2018-07-11T05:46:20.616Z,99.9
2018-07-11T05:47:22.008Z,99.4
2018-07-11T05:48:24.288Z,99.5
2018-07-11T05:49:25.515Z,99.6
2018-07-11T05:50:26.961Z,100.0
2018-07-11T05:51:28.354Z,100.0
2018-07-11T05:52:29.751Z,100.0
2018-07-11T05:53:31.147Z,100.0
2018-07-11T05:54:32.544Z,100.0
2018-07-11T05:55:33.937Z,99.7
2018-07-11T05:56:35.791Z,99.4
2018-07-11T05:57:37.180Z,99.0
2018-07-11T05:58:38.584Z,99.0
2018-07-11T05:59:39.979Z,98.6
2018-07-11T06:00:41.399Z,98.5
2018-07-11T06:01:42.792Z,98.7
2018-07-11T06:02:44.241Z,97.7
2018-07-11T06:03:45.605Z,97.7
2018-07-11T06:04:46.999Z,97.9
2018-07-11T06:05:48.395Z,98.1
2018-07-11T06:06:49.790Z,97.7
2018-07-11T06:07:51.192Z,97.5
2018-07-11T06:08:52.580Z,97.0
2018-07-11T06:09:53.974Z,95.6
2018-07-11T06:10:55.369Z,96.1
2018-07-11T06:11:56.774Z,96.1
2018-07-11T06:12:58.164Z,95.9
2018-07-11T06:13:59.561Z,96.1
2018-07-11T06:15:00.959Z,96.0
2018-07-11T06:16:02.353Z,95.3
2018-07-11T06:17:03.754Z,95.9
2018-07-11T06:18:05.149Z,96.6
2018-07-11T06:19:06.577Z,95.9
2018-07-11T06:20:07.993Z,95.3
2018-07-11T06:21:09.389Z,95.5
2018-07-11T06:22:10.786Z,95.0
2018-07-11T06:23:12.193Z,95.2
2018-07-11T06:24:13.585Z,94.7
2018-07-11T06:25:14.977Z,94.3
2018-07-11T06:26:16.380Z,94.7
2018-07-11T06:27:17.778Z,94.8
2018-07-11T06:28:19.174Z,95.8
2018-07-11T06:29:20.568Z,95.0
2018-07-11T06:30:21.966Z,94.4
2018-07-11T06:31:23.358Z,94.4
2018-07-11T06:32:24.751Z,94.3
2018-07-11T06:33:26.171Z,94.1
2018-07-11T06:34:27.561Z,94.3
2018-07-11T06:35:28.957Z,94.8
2018-07-11T06:36:30.355Z,94.1
2018-07-11T06:37:31.753Z,93.8
2018-07-11T06:38:33.153Z,92.5
2018-07-11T06:39:34.540Z,92.8
2018-07-11T06:40:35.933Z,92.3
2018-07-11T06:41:37.332Z,92.7
2018-07-11T06:42:38.721Z,92.8
2018-07-11T06:43:40.115Z,92.3
2018-07-11T06:44:41.526Z,92.3
2018-07-11T06:45:42.911Z,92.2
2018-07-11T06:46:44.306Z,92.0
2018-07-11T06:47:45.698Z,91.7
2018-07-11T06:48:47.094Z,91.0
2018-07-11T06:49:48.493Z,90.9
2018-07-11T06:50:49.883Z,91.1
2018-07-11T06:51:51.294Z,91.6
2018-07-11T06:52:52.694Z,90.9
2018-07-11T06:53:54.085Z,90.2
2018-07-11T06:54:55.482Z,90.1
2018-07-11T06:55:56.925Z,90.1
2018-07-11T06:56:58.276Z,89.9
2018-07-11T06:57:59.671Z,90.2
2018-07-11T06:59:01.068Z,90.5
2018-07-11T07:00:02.466Z,90.3
2018-07-11T07:01:03.863Z,88.9
2018-07-11T07:02:05.261Z,88.8
2018-07-11T07:03:06.660Z,88.7
2018-07-11T07:04:08.067Z,89.4
2018-07-11T07:05:09.493Z,89.5
2018-07-11T07:06:10.887Z,90.2
2018-07-11T07:07:12.282Z,89.3
2018-07-11T07:08:13.677Z,89.1
2018-07-11T07:09:15.080Z,88.6
2018-07-11T07:10:16.471Z,88.3
2018-07-11T07:11:17.873Z,88.6
2018-07-11T07:12:19.277Z,87.9
2018-07-11T07:13:20.673Z,88.4
2018-07-11T07:14:22.067Z,88.5
2018-07-11T07:15:23.463Z,87.8
2018-07-11T07:16:24.871Z,88.1
2018-07-11T07:17:26.259Z,88.9
2018-07-11T07:18:27.654Z,88.7
2018-07-11T07:19:29.052Z,88.4
2018-07-11T07:20:30.448Z,87.5
2018-07-11T07:21:31.848Z,88.1
2018-07-11T07:22:33.253Z,87.5
2018-07-11T07:23:34.639Z,87.8
2018-07-11T07:24:36.036Z,87.9
2018-07-11T07:25:37.447Z,88.4
2018-07-11T07:26:38.845Z,87.7
2018-07-11T07:27:40.242Z,87.1
2018-07-11T07:28:41.635Z,87.5
2018-07-11T07:29:43.034Z,86.8
2018-07-11T07:30:44.432Z,85.9
2018-07-11T07:31:45.832Z,86.2
2018-07-11T07:32:47.230Z,86.9
2018-07-11T07:33:48.633Z,87.0
2018-07-11T07:34:50.085Z,87.1
2018-07-11T07:35:51.418Z,86.4
2018-07-11T07:36:52.871Z,85.1
2018-07-11T07:37:54.217Z,85.3
2018-07-11T07:38:55.609Z,84.6
2018-07-11T07:39:57.007Z,83.6
2018-07-11T07:40:58.414Z,83.8
2018-07-11T07:41:59.816Z,84.5
2018-07-11T07:43:01.257Z,84.7
2018-07-11T07:44:02.612Z,83.4
2018-07-11T07:45:04.007Z,83.9
2018-07-11T07:46:05.405Z,82.6
2018-07-11T07:47:06.863Z,82.3
2018-07-11T07:48:08.202Z,82.0
2018-07-11T07:49:09.599Z,81.7
2018-07-11T07:50:11.004Z,81.8
2018-07-11T07:51:12.400Z,80.9
2018-07-11T07:52:13.798Z,81.1
2018-07-11T07:53:15.193Z,80.5
2018-07-11T07:54:16.597Z,80.1
2018-07-11T07:55:18.010Z,79.6
2018-07-11T07:56:19.411Z,80.0
2018-07-11T07:57:20.808Z,78.9
2018-07-11T07:58:22.201Z,80.2
2018-07-11T07:59:23.598Z,79.7
2018-07-11T08:00:25.055Z,79.5
2018-07-11T08:01:26.393Z,80.1
2018-07-11T08:02:27.796Z,79.7
2018-07-11T08:03:29.189Z,78.6
2018-07-11T08:04:30.584Z,78.3
2018-07-11T08:05:31.985Z,78.0
2018-07-11T08:06:33.383Z,77.8
2018-07-11T08:07:34.785Z,78.1
2018-07-11T08:08:36.184Z,79.0
2018-07-11T08:09:37.584Z,76.7
2018-07-11T08:10:38.985Z,77.1
2018-07-11T08:11:40.383Z,76.8
2018-07-11T08:12:41.788Z,76.8
2018-07-11T08:13:43.177Z,76.5
2018-07-11T08:14:44.574Z,75.3
2018-07-11T08:15:45.971Z,75.5
2018-07-11T08:16:47.377Z,76.1
2018-07-11T08:17:48.773Z,76.8
2018-07-11T08:18:50.170Z,75.8
2018-07-11T08:19:51.569Z,75.4
2018-07-11T08:20:52.964Z,74.6
2018-07-11T08:21:54.365Z,73.1
2018-07-11T08:22:55.776Z,73.1
2018-07-11T08:23:57.182Z,73.3
2018-07-11T08:24:58.576Z,73.3
2018-07-11T08:25:59.975Z,73.9
2018-07-11T08:27:01.439Z,73.4
2018-07-11T08:28:02.768Z,72.8
2018-07-11T08:29:04.163Z,71.7
2018-07-11T08:30:05.569Z,71.0
2018-07-11T08:31:06.973Z,71.8
2018-07-11T08:32:08.370Z,70.7
2018-07-11T08:33:09.764Z,70.7
2018-07-11T08:34:11.266Z,71.0
2018-07-11T08:35:12.738Z,71.0
2018-07-11T08:36:14.054Z,70.4
2018-07-11T08:37:15.452Z,69.2
2018-07-11T08:38:16.852Z,69.4
2018-07-11T08:39:18.250Z,69.0
2018-07-11T08:40:19.647Z,69.6
2018-07-11T08:41:21.045Z,69.2
2018-07-11T08:42:22.442Z,69.8
2018-07-11T08:43:23.840Z,68.6
2018-07-11T08:44:25.241Z,69.3
2018-07-11T08:45:26.640Z,69.2
2018-07-11T08:46:28.037Z,68.9
2018-07-11T08:47:29.435Z,68.0
2018-07-11T08:48:30.833Z,66.4
2018-07-11T08:49:32.231Z,66.8
2018-07-11T08:50:33.634Z,66.4
2018-07-11T08:51:35.033Z,66.7
2018-07-11T08:52:36.516Z,67.7
2018-07-11T08:53:37.912Z,67.4
2018-07-11T08:54:39.312Z,68.5
2018-07-11T08:55:40.714Z,67.2
2018-07-11T08:56:42.112Z,67.8
2018-07-11T08:57:43.514Z,69.8
2018-07-11T08:58:44.914Z,68.7
2018-07-11T08:59:46.313Z,68.2
2018-07-11T09:00:47.709Z,69.6
2018-07-11T09:01:49.107Z,69.8
2018-07-11T09:02:50.579Z,69.9
2018-07-11T09:03:51.911Z,68.7
2018-07-11T09:04:53.317Z,68.1
2018-07-11T09:05:54.721Z,68.0
2018-07-11T09:06:56.125Z,66.4
2018-07-11T09:07:57.521Z,67.4
2018-07-11T09:08:58.918Z,68.2
2018-07-11T09:10:00.318Z,68.8
2018-07-11T09:11:01.718Z,69.2
2018-07-11T09:12:03.131Z,69.6
2018-07-11T09:13:04.530Z,67.4
2018-07-11T09:14:05.932Z,65.2
2018-07-11T09:15:07.343Z,65.7
2018-07-11T09:16:08.739Z,65.1
2018-07-11T09:17:10.202Z,65.3
2018-07-11T09:18:11.608Z,65.5
2018-07-11T09:19:13.011Z,66.0
2018-07-11T09:20:14.408Z,65.4
2018-07-11T09:21:15.803Z,66.5
2018-07-11T09:22:17.201Z,67.6
2018-07-11T09:23:18.596Z,66.9
2018-07-11T09:24:20.029Z,65.9
2018-07-11T09:25:21.395Z,64.8
2018-07-11T09:26:22.799Z,63.9
2018-07-11T09:27:24.206Z,65.1
2018-07-11T09:28:25.608Z,63.6
2018-07-11T09:29:27.007Z,63.1
2018-07-11T09:30:28.411Z,62.4
2018-07-11T09:31:29.810Z,62.2
2018-07-11T09:32:31.204Z,62.7
2018-07-11T09:33:32.613Z,61.3
2018-07-11T09:34:34.759Z,62.7
2018-07-11T09:35:36.205Z,62.3
2018-07-11T09:36:37.603Z,62.5
2018-07-11T09:37:39.064Z,63.0
2018-07-11T09:38:40.486Z,61.3
2018-07-11T09:39:41.884Z,61.2
2018-07-11T09:40:43.319Z,62.4
2018-07-11T09:41:44.720Z,61.3
2018-07-11T09:42:46.119Z,61.0
2018-07-11T09:43:47.600Z,60.2
2018-07-11T09:44:49.017Z,61.6
2018-07-11T09:45:50.413Z,60.8
2018-07-11T09:46:51.812Z,59.8
2018-07-11T09:47:53.217Z,60.0
2018-07-11T09:48:54.615Z,59.0
2018-07-11T09:49:56.016Z,55.8
2018-07-11T09:50:57.414Z,55.3
2018-07-11T09:51:58.811Z,56.6
2018-07-11T09:53:00.216Z,55.3
2018-07-11T09:54:01.621Z,56.2
2018-07-11T09:55:03.023Z,55.5
2018-07-11T09:56:04.426Z,56.6
2018-07-11T09:57:05.826Z,56.4
2018-07-11T09:58:07.224Z,56.9
2018-07-11T09:59:08.650Z,57.1
2018-07-11T10:00:10.049Z,58.0
2018-07-11T10:01:11.454Z,56.9
2018-07-11T10:02:12.855Z,57.3
2018-07-11T10:03:14.257Z,57.1
2018-07-11T10:04:15.658Z,58.4
2018-07-11T10:05:17.117Z,55.8
2018-07-11T10:06:18.456Z,55.4
2018-07-11T10:07:19.865Z,56.2
2018-07-11T10:08:21.271Z,56.3
2018-07-11T10:09:22.674Z,56.4
2018-07-11T10:10:24.079Z,56.9
2018-07-11T10:11:25.485Z,56.5
2018-07-11T10:12:26.938Z,55.8
2018-07-11T10:13:28.303Z,54.9
2018-07-11T10:14:29.698Z,54.9
2018-07-11T10:15:31.097Z,54.4
2018-07-11T10:16:32.500Z,54.8
2018-07-11T10:17:33.900Z,54.8
2018-07-11T10:18:35.302Z,55.6
2018-07-11T10:19:36.701Z,55.5
2018-07-11T10:20:38.096Z,55.7
2018-07-11T10:21:39.563Z,56.2
2018-07-11T10:22:40.902Z,57.0
2018-07-11T10:23:42.300Z,56.2
2018-07-11T10:24:43.704Z,56.8
2018-07-11T10:25:45.104Z,56.4
2018-07-11T10:26:46.504Z,57.4
2018-07-11T10:27:47.902Z,56.5
2018-07-11T10:28:49.303Z,55.1
2018-07-11T10:29:50.700Z,54.5
2018-07-11T10:30:52.099Z,53.5
2018-07-11T10:31:53.510Z,54.0
2018-07-11T10:32:54.906Z,52.5
2018-07-11T10:33:56.315Z,53.0
2018-07-11T10:34:57.711Z,53.1
2018-07-11T10:35:59.119Z,52.6
2018-07-11T10:37:00.517Z,53.1
2018-07-11T10:38:01.921Z,51.8
2018-07-11T10:39:03.331Z,51.4
2018-07-11T10:40:04.725Z,50.3
2018-07-11T10:41:06.122Z,49.1
2018-07-11T10:42:07.519Z,49.9
2018-07-11T10:43:08.937Z,50.7
2018-07-11T10:44:10.346Z,49.6
2018-07-11T10:45:11.747Z,49.7
2018-07-11T10:46:13.148Z,49.7
2018-07-11T10:47:14.553Z,49.9
2018-07-11T10:48:15.951Z,49.2
2018-07-11T10:49:17.353Z,50.0
2018-07-11T10:50:18.758Z,49.3
2018-07-11T10:51:20.160Z,49.6
2018-07-11T10:52:21.558Z,49.3
2018-07-11T10:53:22.967Z,49.2
2018-07-11T10:54:24.365Z,48.9
2018-07-11T10:55:25.766Z,49.2
2018-07-11T10:56:27.169Z,49.6
2018-07-11T10:57:28.610Z,49.2
2018-07-11T10:58:29.970Z,48.2
2018-07-11T10:59:31.372Z,48.9
2018-07-11T11:00:36.661Z,49.2
2018-07-11T11:01:34.299Z,47.3
2018-07-11T11:02:35.614Z,47.4
2018-07-11T11:03:36.991Z,45.8
2018-07-11T11:04:38.413Z,43.5
2018-07-11T11:05:39.821Z,43.8
2018-07-11T11:06:41.222Z,44.0
2018-07-11T11:07:42.625Z,45.2
2018-07-11T11:08:44.028Z,45.2
2018-07-11T11:09:45.427Z,45.9
2018-07-11T11:10:46.825Z,46.1
2018-07-11T11:11:48.226Z,46.1
2018-07-11T11:12:49.631Z,46.0
2018-07-11T11:13:51.033Z,46.9
2018-07-11T11:14:52.438Z,46.1
2018-07-11T11:15:53.842Z,44.9
2018-07-11T11:16:55.246Z,45.1
2018-07-11T11:17:56.644Z,46.3
2018-07-11T11:18:58.111Z,43.4
2018-07-11T11:19:59.542Z,44.1
2018-07-11T11:21:00.947Z,41.7
2018-07-11T11:22:02.359Z,41.5
2018-07-11T11:23:03.766Z,41.2
2018-07-11T11:24:05.169Z,41.4
2018-07-11T11:25:06.571Z,41.8
2018-07-11T11:26:07.984Z,40.9
2018-07-11T11:27:09.433Z,40.5
2018-07-11T11:28:10.837Z,39.7
2018-07-11T11:29:12.243Z,38.7
2018-07-11T11:30:13.649Z,38.8
2018-07-11T11:31:15.058Z,40.0
2018-07-11T11:32:16.459Z,39.7
2018-07-11T11:33:17.871Z,41.1
2018-07-11T11:34:19.267Z,39.7
2018-07-11T11:35:20.683Z,40.1
2018-07-11T11:36:22.090Z,41.3
2018-07-11T11:37:23.496Z,41.0
2018-07-11T11:38:24.896Z,41.0
2018-07-11T11:39:26.302Z,41.4
2018-07-11T11:40:27.701Z,42.2
2018-07-11T11:41:29.141Z,43.3
2018-07-11T11:42:30.846Z,43.3
2018-07-11T11:43:31.908Z,43.3
2018-07-11T11:44:33.314Z,42.4
2018-07-11T11:45:34.723Z,42.5
2018-07-11T11:46:36.128Z,43.1
2018-07-11T11:47:37.533Z,43.1
2018-07-11T11:48:38.933Z,41.5
2018-07-11T11:49:40.333Z,42.1
2018-07-11T11:50:41.740Z,40.6
2018-07-11T11:51:43.149Z,40.3
2018-07-11T11:52:44.566Z,38.8
2018-07-11T11:53:45.972Z,40.1
2018-07-11T11:54:47.377Z,38.8
2018-07-11T11:55:48.782Z,39.7
2018-07-11T11:56:50.192Z,38.1
2018-07-11T11:57:51.597Z,36.0
2018-07-11T11:58:53.000Z,35.3
2018-07-11T11:59:54.410Z,35.3
2018-07-11T12:00:55.816Z,35.5
2018-07-11T12:01:57.227Z,36.6
2018-07-11T12:02:58.627Z,37.4
2018-07-11T12:04:00.036Z,36.7
2018-07-11T12:05:01.441Z,37.2
2018-07-11T12:06:02.848Z,37.0
2018-07-11T12:07:04.293Z,36.8
2018-07-11T12:08:05.654Z,36.6
2018-07-11T12:09:07.078Z,35.5
2018-07-11T12:10:08.551Z,34.6
2018-07-11T12:11:09.976Z,34.8
2018-07-11T12:12:11.383Z,36.3
2018-07-11T12:13:12.789Z,35.7
2018-07-11T12:14:14.192Z,35.1
2018-07-11T12:15:15.590Z,35.9
2018-07-11T12:16:16.989Z,35.8
2018-07-11T12:17:18.392Z,36.0
2018-07-11T12:18:19.796Z,36.4
2018-07-11T12:19:21.228Z,35.7
2018-07-11T12:20:22.635Z,35.5
2018-07-11T12:21:24.133Z,37.0
2018-07-11T12:22:25.451Z,36.9
2018-07-11T12:23:26.856Z,35.7
2018-07-11T12:24:28.270Z,35.1
2018-07-11T12:25:29.675Z,35.2
2018-07-11T12:26:31.084Z,35.7
2018-07-11T12:27:32.494Z,34.8
2018-07-11T12:28:33.894Z,35.0
2018-07-11T12:29:35.295Z,35.5
2018-07-11T12:30:36.698Z,35.6
2018-07-11T12:31:38.098Z,36.7
2018-07-11T12:32:39.500Z,35.3
2018-07-11T12:33:40.914Z,36.6
2018-07-11T12:34:42.316Z,37.4
2018-07-11T12:35:43.717Z,35.6
2018-07-11T12:36:45.119Z,37.8
2018-07-11T12:37:46.525Z,36.6
2018-07-11T12:38:47.927Z,37.2
2018-07-11T12:39:49.339Z,35.5
2018-07-11T12:40:50.746Z,35.5
2018-07-11T12:41:52.172Z,34.2
2018-07-11T12:42:53.563Z,34.4
2018-07-11T12:43:54.962Z,35.2
2018-07-11T12:44:56.365Z,34.8
2018-07-11T12:45:57.774Z,35.9
2018-07-11T12:46:59.180Z,36.1
2018-07-11T12:48:00.582Z,35.4
2018-07-11T12:49:02.000Z,35.2
2018-07-11T12:50:03.400Z,36.4
2018-07-11T12:51:04.823Z,35.2
2018-07-11T12:52:06.221Z,35.2
2018-07-11T12:53:07.622Z,35.6
2018-07-11T12:54:09.044Z,35.5
2018-07-11T12:55:10.451Z,36.9
2018-07-11T12:56:11.854Z,36.8
2018-07-11T12:57:13.255Z,37.4
2018-07-11T12:58:14.658Z,37.3
2018-07-11T12:59:16.056Z,37.9
2018-07-11T13:00:17.470Z,37.8
2018-07-11T13:01:18.859Z,38.1
2018-07-11T13:02:20.265Z,38.0
2018-07-11T13:03:21.674Z,37.9
2018-07-11T13:04:23.074Z,37.9
2018-07-11T13:05:24.476Z,38.5
2018-07-11T13:06:25.885Z,38.3
2018-07-11T13:07:27.289Z,38.8
2018-07-11T13:08:28.741Z,38.0
2018-07-11T13:09:30.102Z,37.6
2018-07-11T13:10:31.510Z,36.6
2018-07-11T13:11:32.911Z,37.4
2018-07-11T13:12:34.308Z,37.2
2018-07-11T13:13:35.729Z,38.0
2018-07-11T13:14:37.118Z,37.8
2018-07-11T13:15:38.517Z,38.7
2018-07-11T13:16:39.945Z,38.8
2018-07-11T13:17:41.325Z,39.5
2018-07-11T13:18:42.726Z,39.5
2018-07-11T13:19:44.128Z,39.2
2018-07-11T13:20:45.542Z,40.1
2018-07-11T13:21:47.025Z,39.8
2018-07-11T13:22:48.325Z,38.5
2018-07-11T13:23:49.732Z,39.2
2018-07-11T13:24:51.133Z,38.1
2018-07-11T13:25:52.537Z,37.3
2018-07-11T13:26:53.937Z,37.4
2018-07-11T13:27:55.339Z,37.2
2018-07-11T13:28:56.745Z,37.3
2018-07-11T13:29:58.151Z,37.1
2018-07-11T13:30:59.554Z,37.8
2018-07-11T13:32:00.970Z,37.8
2018-07-11T13:33:02.366Z,37.7
2018-07-11T13:34:03.769Z,38.1
2018-07-11T13:35:05.174Z,38.2